House Creek, Missouri
Current Conditions -  °F | °C
As of 10:53 PM on Friday 19 Dec 2014 (Local Time) from KPOF Reporting Station
Overcast Overcast  
Wind Chill: 32°   Ceiling: 2900
Heat Index: 36°   Visibility: 7mi
Dew Point: 32°   Wind: 5mph
Humidity: 86%   Direction: 10°N
Pressure: 30.26"   Gusts: NA
Location:  36.9608°N, 90.9923°W
Report Text: KPOF 200453Z AUTO 01004KT 7SM OVC029 02/00 A3026 RMK AO2 SLP254 T00220000
Loading
Personal Weather Stations






























Interactive Weather Map New forecast layout! Learn more

10-Day Weather Forecast

Advertisements
Track Severe Weather on mobile